sensor_id;sensor_type;location;lat;lon;timestamp;temperature;humidity
13409;DHT22;6775;49.574;11.170;2022-07-22T00:01:37;17.70;99.90
13409;DHT22;6775;49.574;11.170;2022-07-22T00:04:05;17.70;99.90
13409;DHT22;6775;49.574;11.170;2022-07-22T00:06:33;17.60;99.90
13409;DHT22;6775;49.574;11.170;2022-07-22T00:09:03;17.70;99.90
13409;DHT22;6775;49.574;11.170;2022-07-22T00:11:31;17.60;99.90
13409;DHT22;6775;49.574;11.170;2022-07-22T00:13:59;17.50;99.90
13409;DHT22;6775;49.574;11.170;2022-07-22T00:16:27;17.60;99.90
13409;DHT22;6775;49.574;11.170;2022-07-22T00:18:55;17.60;99.90
13409;DHT22;6775;49.574;11.170;2022-07-22T00:21:24;17.60;99.90
13409;DHT22;6775;49.574;11.170;2022-07-22T00:23:52;17.80;99.90
13409;DHT22;6775;49.574;11.170;2022-07-22T00:26:21;17.60;99.90
13409;DHT22;6775;49.574;11.170;2022-07-22T00:28:49;17.60;99.90
13409;DHT22;6775;49.574;11.170;2022-07-22T00:31:18;17.60;99.90
13409;DHT22;6775;49.574;11.170;2022-07-22T00:33:46;17.60;99.90
13409;DHT22;6775;49.574;11.170;2022-07-22T00:36:14;17.60;99.90
13409;DHT22;6775;49.574;11.170;2022-07-22T00:38:42;17.60;99.90
13409;DHT22;6775;49.574;11.170;2022-07-22T00:41:10;17.50;99.90
13409;DHT22;6775;49.574;11.170;2022-07-22T00:43:53;17.50;99.90
13409;DHT22;6775;49.574;11.170;2022-07-22T00:46:22;17.40;99.90
13409;DHT22;6775;49.574;11.170;2022-07-22T00:48:50;17.40;99.90
13409;DHT22;6775;49.574;11.170;2022-07-22T00:51:20;17.40;99.90
13409;DHT22;6775;49.574;11.170;2022-07-22T00:53:49;17.40;99.90
13409;DHT22;6775;49.574;11.170;2022-07-22T00:56:18;17.30;99.90
13409;DHT22;6775;49.574;11.170;2022-07-22T00:58:47;17.30;99.90
13409;DHT22;6775;49.574;11.170;2022-07-22T01:01:18;17.30;99.90
13409;DHT22;6775;49.574;11.170;2022-07-22T01:03:46;17.30;99.90
13409;DHT22;6775;49.574;11.170;2022-07-22T01:06:17;17.30;99.90
13409;DHT22;6775;49.574;11.170;2022-07-22T01:08:45;17.30;99.90
13409;DHT22;6775;49.574;11.170;2022-07-22T01:11:15;17.30;99.90
13409;DHT22;6775;49.574;11.170;2022-07-22T01:13:45;17.30;99.90
13409;DHT22;6775;49.574;11.170;2022-07-22T01:16:15;17.30;99.90
13409;DHT22;6775;49.574;11.170;2022-07-22T01:18:45;17.20;99.90
13409;DHT22;6775;49.574;11.170;2022-07-22T01:21:16;17.20;99.90
13409;DHT22;6775;49.574;11.170;2022-07-22T01:23:45;17.20;99.90
13409;DHT22;6775;49.574;11.170;2022-07-22T01:26:13;17.20;99.90
13409;DHT22;6775;49.574;11.170;2022-07-22T01:28:42;17.10;99.90
13409;DHT22;6775;49.574;11.170;2022-07-22T01:31:11;17.10;99.90
13409;DHT22;6775;49.574;11.170;2022-07-22T01:33:39;17.00;99.90
13409;DHT22;6775;49.574;11.170;2022-07-22T01:36:07;16.90;99.90
13409;DHT22;6775;49.574;11.170;2022-07-22T01:38:37;16.90;99.90
13409;DHT22;6775;49.574;11.170;2022-07-22T01:41:05;16.80;99.90
13409;DHT22;6775;49.574;11.170;2022-07-22T01:43:33;16.70;99.90
13409;DHT22;6775;49.574;11.170;2022-07-22T01:46:01;16.70;99.90
13409;DHT22;6775;49.574;11.170;2022-07-22T01:48:29;16.60;99.90
13409;DHT22;6775;49.574;11.170;2022-07-22T01:50:57;16.60;99.90
13409;DHT22;6775;49.574;11.170;2022-07-22T01:53:25;16.60;99.90
13409;DHT22;6775;49.574;11.170;2022-07-22T01:55:55;16.60;99.90
13409;DHT22;6775;49.574;11.170;2022-07-22T01:58:23;16.60;99.90
13409;DHT22;6775;49.574;11.170;2022-07-22T02:00:51;16.60;99.90
13409;DHT22;6775;49.574;11.170;2022-07-22T02:03:19;16.60;99.90
13409;DHT22;6775;49.574;11.170;2022-07-22T02:05:47;16.50;99.90
13409;DHT22;6775;49.574;11.170;2022-07-22T02:08:16;16.50;99.90
13409;DHT22;6775;49.574;11.170;2022-07-22T02:10:44;16.50;99.90
13409;DHT22;6775;49.574;11.170;2022-07-22T02:13:13;16.40;99.90
13409;DHT22;6775;49.574;11.170;2022-07-22T02:15:41;16.40;99.90
13409;DHT22;6775;49.574;11.170;2022-07-22T02:18:11;16.40;99.90
13409;DHT22;6775;49.574;11.170;2022-07-22T02:20:39;16.40;99.90
13409;DHT22;6775;49.574;11.170;2022-07-22T02:23:07;16.30;99.90
13409;DHT22;6775;49.574;11.170;2022-07-22T02:25:38;16.20;99.90
13409;DHT22;6775;49.574;11.170;2022-07-22T02:28:06;16.10;99.90
13409;DHT22;6775;49.574;11.170;2022-07-22T02:30:36;16.10;99.90
13409;DHT22;6775;49.574;11.170;2022-07-22T02:33:04;16.10;99.90
13409;DHT22;6775;49.574;11.170;2022-07-22T02:35:34;16.10;99.90
13409;DHT22;6775;49.574;11.170;2022-07-22T02:38:02;16.10;99.90
13409;DHT22;6775;49.574;11.170;2022-07-22T02:40:31;16.00;99.90
13409;DHT22;6775;49.574;11.170;2022-07-22T02:42:59;16.00;99.90
13409;DHT22;6775;49.574;11.170;2022-07-22T02:45:27;16.00;99.90
13409;DHT22;6775;49.574;11.170;2022-07-22T02:47:57;16.00;99.90
13409;DHT22;6775;49.574;11.170;2022-07-22T02:50:25;15.90;99.90
13409;DHT22;6775;49.574;11.170;2022-07-22T02:52:53;15.90;99.90
13409;DHT22;6775;49.574;11.170;2022-07-22T02:55:21;15.90;99.90
13409;DHT22;6775;49.574;11.170;2022-07-22T02:57:49;15.90;99.90
13409;DHT22;6775;49.574;11.170;2022-07-22T03:00:17;15.90;99.90
13409;DHT22;6775;49.574;11.170;2022-07-22T03:02:48;15.90;99.90
13409;DHT22;6775;49.574;11.170;2022-07-22T03:05:17;15.90;99.90
13409;DHT22;6775;49.574;11.170;2022-07-22T03:07:45;15.90;99.90
13409;DHT22;6775;49.574;11.170;2022-07-22T03:10:15;15.90;99.90
13409;DHT22;6775;49.574;11.170;2022-07-22T03:12:43;15.90;99.90
13409;DHT22;6775;49.574;11.170;2022-07-22T03:15:11;15.80;99.90
13409;DHT22;6775;49.574;11.170;2022-07-22T03:17:39;15.80;99.90
13409;DHT22;6775;49.574;11.170;2022-07-22T03:20:09;15.70;99.90
13409;DHT22;6775;49.574;11.170;2022-07-22T03:22:38;15.60;99.90
13409;DHT22;6775;49.574;11.170;2022-07-22T03:25:07;15.70;99.90
13409;DHT22;6775;49.574;11.170;2022-07-22T03:27:35;15.70;99.90
13409;DHT22;6775;49.574;11.170;2022-07-22T03:30:04;15.70;99.90
13409;DHT22;6775;49.574;11.170;2022-07-22T03:32:32;15.70;99.90
13409;DHT22;6775;49.574;11.170;2022-07-22T03:35:00;15.70;99.90
13409;DHT22;6775;49.574;11.170;2022-07-22T03:37:30;15.70;99.90
13409;DHT22;6775;49.574;11.170;2022-07-22T03:39:59;15.70;99.90
13409;DHT22;6775;49.574;11.170;2022-07-22T03:42:28;15.70;99.90
13409;DHT22;6775;49.574;11.170;2022-07-22T03:44:56;15.70;99.90
13409;DHT22;6775;49.574;11.170;2022-07-22T03:47:24;15.70;99.90
13409;DHT22;6775;49.574;11.170;2022-07-22T03:49:52;15.70;99.90
13409;DHT22;6775;49.574;11.170;2022-07-22T03:52:20;15.70;99.90
13409;DHT22;6775;49.574;11.170;2022-07-22T03:54:48;15.70;99.90
13409;DHT22;6775;49.574;11.170;2022-07-22T03:57:18;15.70;99.90
13409;DHT22;6775;49.574;11.170;2022-07-22T03:59:46;15.70;99.90
13409;DHT22;6775;49.574;11.170;2022-07-22T04:02:14;15.70;99.90
13409;DHT22;6775;49.574;11.170;2022-07-22T04:04:42;15.70;99.90
13409;DHT22;6775;49.574;11.170;2022-07-22T04:07:10;15.70;99.90
13409;DHT22;6775;49.574;11.170;2022-07-22T04:09:38;15.80;99.90
13409;DHT22;6775;49.574;11.170;2022-07-22T04:12:07;15.80;99.90
13409;DHT22;6775;49.574;11.170;2022-07-22T04:14:36;15.80;99.90
13409;DHT22;6775;49.574;11.170;2022-07-22T04:17:04;15.80;99.90
13409;DHT22;6775;49.574;11.170;2022-07-22T04:19:37;15.80;99.90
13409;DHT22;6775;49.574;11.170;2022-07-22T04:22:05;15.90;99.90
13409;DHT22;6775;49.574;11.170;2022-07-22T04:24:33;15.90;99.90
13409;DHT22;6775;49.574;11.170;2022-07-22T04:27:01;15.90;99.90
13409;DHT22;6775;49.574;11.170;2022-07-22T04:29:29;15.90;99.90
13409;DHT22;6775;49.574;11.170;2022-07-22T04:31:59;16.00;99.90
13409;DHT22;6775;49.574;11.170;2022-07-22T04:34:28;15.90;99.90
13409;DHT22;6775;49.574;11.170;2022-07-22T04:36:57;16.00;99.90
13409;DHT22;6775;49.574;11.170;2022-07-22T04:39:25;16.00;99.90
13409;DHT22;6775;49.574;11.170;2022-07-22T04:41:52;16.00;99.90
13409;DHT22;6775;49.574;11.170;2022-07-22T04:44:20;16.00;99.90
13409;DHT22;6775;49.574;11.170;2022-07-22T04:46:48;16.10;99.90
13409;DHT22;6775;49.574;11.170;2022-07-22T04:49:18;16.10;99.90
13409;DHT22;6775;49.574;11.170;2022-07-22T04:51:46;16.20;99.90
13409;DHT22;6775;49.574;11.170;2022-07-22T04:54:14;16.20;99.90
13409;DHT22;6775;49.574;11.170;2022-07-22T04:56:42;16.30;99.90
13409;DHT22;6775;49.574;11.170;2022-07-22T04:59:10;16.40;99.90
13409;DHT22;6775;49.574;11.170;2022-07-22T05:01:38;16.40;99.90
13409;DHT22;6775;49.574;11.170;2022-07-22T05:04:06;16.50;99.90
13409;DHT22;6775;49.574;11.170;2022-07-22T05:06:35;16.50;99.90
13409;DHT22;6775;49.574;11.170;2022-07-22T05:09:03;16.60;99.90
13409;DHT22;6775;49.574;11.170;2022-07-22T05:11:31;16.60;99.90
13409;DHT22;6775;49.574;11.170;2022-07-22T05:13:59;16.70;99.90
13409;DHT22;6775;49.574;11.170;2022-07-22T05:16:27;16.80;99.90
13409;DHT22;6775;49.574;11.170;2022-07-22T05:18:55;16.80;99.90
13409;DHT22;6775;49.574;11.170;2022-07-22T05:21:24;16.90;99.90
13409;DHT22;6775;49.574;11.170;2022-07-22T05:23:53;17.00;99.90
13409;DHT22;6775;49.574;11.170;2022-07-22T05:26:21;17.10;99.90
13409;DHT22;6775;49.574;11.170;2022-07-22T05:28:52;17.20;99.90
13409;DHT22;6775;49.574;11.170;2022-07-22T05:31:21;17.30;99.90
13409;DHT22;6775;49.574;11.170;2022-07-22T05:33:49;17.40;99.90
13409;DHT22;6775;49.574;11.170;2022-07-22T05:36:17;17.50;99.90
13409;DHT22;6775;49.574;11.170;2022-07-22T05:38:45;17.60;99.90
13409;DHT22;6775;49.574;11.170;2022-07-22T05:41:14;17.70;99.90
13409;DHT22;6775;49.574;11.170;2022-07-22T05:43:43;17.80;99.90
13409;DHT22;6775;49.574;11.170;2022-07-22T05:46:11;17.90;99.90
13409;DHT22;6775;49.574;11.170;2022-07-22T05:48:39;18.00;99.90
13409;DHT22;6775;49.574;11.170;2022-07-22T05:51:11;18.00;99.90
13409;DHT22;6775;49.574;11.170;2022-07-22T05:53:40;18.10;99.90
13409;DHT22;6775;49.574;11.170;2022-07-22T05:56:09;18.30;99.90
13409;DHT22;6775;49.574;11.170;2022-07-22T05:58:39;18.40;99.90
13409;DHT22;6775;49.574;11.170;2022-07-22T06:01:08;18.50;99.90
13409;DHT22;6775;49.574;11.170;2022-07-22T06:03:36;18.60;99.90
13409;DHT22;6775;49.574;11.170;2022-07-22T06:06:04;18.60;99.90
13409;DHT22;6775;49.574;11.170;2022-07-22T06:08:35;18.70;99.90
13409;DHT22;6775;49.574;11.170;2022-07-22T06:11:03;18.80;99.90
13409;DHT22;6775;49.574;11.170;2022-07-22T06:13:32;18.90;99.90
13409;DHT22;6775;49.574;11.170;2022-07-22T06:16:01;19.00;99.90
13409;DHT22;6775;49.574;11.170;2022-07-22T06:18:30;19.10;99.90
13409;DHT22;6775;49.574;11.170;2022-07-22T06:20:58;19.20;99.90
13409;DHT22;6775;49.574;11.170;2022-07-22T06:23:25;19.20;99.90
13409;DHT22;6775;49.574;11.170;2022-07-22T06:25:53;19.30;99.90
13409;DHT22;6775;49.574;11.170;2022-07-22T06:28:21;19.40;99.90
13409;DHT22;6775;49.574;11.170;2022-07-22T06:30:49;19.50;99.90
13409;DHT22;6775;49.574;11.170;2022-07-22T06:33:19;19.60;99.90
13409;DHT22;6775;49.574;11.170;2022-07-22T06:35:47;19.70;99.90
13409;DHT22;6775;49.574;11.170;2022-07-22T06:38:15;19.80;99.90
13409;DHT22;6775;49.574;11.170;2022-07-22T06:40:56;19.80;99.90
13409;DHT22;6775;49.574;11.170;2022-07-22T06:43:26;20.00;99.90
13409;DHT22;6775;49.574;11.170;2022-07-22T06:45:54;20.10;99.90
13409;DHT22;6775;49.574;11.170;2022-07-22T06:48:23;20.10;99.90
13409;DHT22;6775;49.574;11.170;2022-07-22T06:50:51;20.20;99.90
13409;DHT22;6775;49.574;11.170;2022-07-22T06:53:19;20.30;99.90
13409;DHT22;6775;49.574;11.170;2022-07-22T06:55:47;20.40;99.90
13409;DHT22;6775;49.574;11.170;2022-07-22T06:58:15;20.30;99.90
13409;DHT22;6775;49.574;11.170;2022-07-22T07:00:43;20.60;99.90
13409;DHT22;6775;49.574;11.170;2022-07-22T07:03:11;20.60;99.90
13409;DHT22;6775;49.574;11.170;2022-07-22T07:06:01;20.70;99.90
13409;DHT22;6775;49.574;11.170;2022-07-22T07:08:30;20.70;99.90
13409;DHT22;6775;49.574;11.170;2022-07-22T07:10:58;20.80;99.90
13409;DHT22;6775;49.574;11.170;2022-07-22T07:13:25;20.90;99.90
13409;DHT22;6775;49.574;11.170;2022-07-22T07:15:53;21.00;99.90
13409;DHT22;6775;49.574;11.170;2022-07-22T07:18:22;21.10;99.90
13409;DHT22;6775;49.574;11.170;2022-07-22T07:20:50;21.20;99.90
13409;DHT22;6775;49.574;11.170;2022-07-22T07:23:19;21.20;99.90
13409;DHT22;6775;49.574;11.170;2022-07-22T07:25:48;21.40;99.90
13409;DHT22;6775;49.574;11.170;2022-07-22T07:28:16;21.50;99.90
13409;DHT22;6775;49.574;11.170;2022-07-22T07:30:46;21.60;99.90
13409;DHT22;6775;49.574;11.170;2022-07-22T07:33:14;21.70;99.90
13409;DHT22;6775;49.574;11.170;2022-07-22T07:35:42;21.80;99.90
13409;DHT22;6775;49.574;11.170;2022-07-22T07:38:10;21.90;99.90
13409;DHT22;6775;49.574;11.170;2022-07-22T07:40:40;22.00;99.90
13409;DHT22;6775;49.574;11.170;2022-07-22T07:43:08;22.20;99.90
13409;DHT22;6775;49.574;11.170;2022-07-22T07:45:36;22.30;99.90
13409;DHT22;6775;49.574;11.170;2022-07-22T07:48:05;22.50;99.90
13409;DHT22;6775;49.574;11.170;2022-07-22T07:50:33;22.50;99.90
13409;DHT22;6775;49.574;11.170;2022-07-22T07:53:01;22.60;99.90
13409;DHT22;6775;49.574;11.170;2022-07-22T07:55:30;22.70;99.90
13409;DHT22;6775;49.574;11.170;2022-07-22T07:58:01;22.80;99.90
13409;DHT22;6775;49.574;11.170;2022-07-22T08:00:29;22.90;99.90
13409;DHT22;6775;49.574;11.170;2022-07-22T08:02:59;22.90;99.90
13409;DHT22;6775;49.574;11.170;2022-07-22T08:05:28;23.00;99.90
13409;DHT22;6775;49.574;11.170;2022-07-22T08:07:56;23.10;99.90
13409;DHT22;6775;49.574;11.170;2022-07-22T08:10:25;23.20;99.90
13409;DHT22;6775;49.574;11.170;2022-07-22T08:13:15;23.30;99.90
13409;DHT22;6775;49.574;11.170;2022-07-22T08:15:44;23.50;99.90
13409;DHT22;6775;49.574;11.170;2022-07-22T08:18:13;23.60;99.90
13409;DHT22;6775;49.574;11.170;2022-07-22T08:20:41;23.70;99.90
13409;DHT22;6775;49.574;11.170;2022-07-22T08:23:09;23.70;99.90
13409;DHT22;6775;49.574;11.170;2022-07-22T08:25:36;23.80;99.90
13409;DHT22;6775;49.574;11.170;2022-07-22T08:28:05;23.90;99.90
13409;DHT22;6775;49.574;11.170;2022-07-22T08:30:34;24.00;99.90
13409;DHT22;6775;49.574;11.170;2022-07-22T08:33:02;24.10;99.90
13409;DHT22;6775;49.574;11.170;2022-07-22T08:35:30;24.20;99.90
13409;DHT22;6775;49.574;11.170;2022-07-22T08:37:59;24.30;99.90
13409;DHT22;6775;49.574;11.170;2022-07-22T08:40:27;24.40;99.90
13409;DHT22;6775;49.574;11.170;2022-07-22T08:42:55;24.50;99.90
13409;DHT22;6775;49.574;11.170;2022-07-22T08:45:24;24.70;99.90
13409;DHT22;6775;49.574;11.170;2022-07-22T08:47:54;24.80;99.90
13409;DHT22;6775;49.574;11.170;2022-07-22T08:50:22;24.90;99.90
13409;DHT22;6775;49.574;11.170;2022-07-22T08:52:51;24.90;99.90
13409;DHT22;6775;49.574;11.170;2022-07-22T08:55:19;25.00;99.90
13409;DHT22;6775;49.574;11.170;2022-07-22T08:57:48;25.10;99.90
13409;DHT22;6775;49.574;11.170;2022-07-22T09:00:19;25.10;99.90
13409;DHT22;6775;49.574;11.170;2022-07-22T09:02:48;25.30;99.90
13409;DHT22;6775;49.574;11.170;2022-07-22T09:05:17;25.40;99.90
13409;DHT22;6775;49.574;11.170;2022-07-22T09:08:06;25.40;99.90
13409;DHT22;6775;49.574;11.170;2022-07-22T09:10:35;25.50;99.90
13409;DHT22;6775;49.574;11.170;2022-07-22T09:13:05;25.60;99.90
13409;DHT22;6775;49.574;11.170;2022-07-22T09:15:34;25.80;99.90
13409;DHT22;6775;49.574;11.170;2022-07-22T09:18:04;25.80;99.90
13409;DHT22;6775;49.574;11.170;2022-07-22T09:20:35;25.90;99.90
13409;DHT22;6775;49.574;11.170;2022-07-22T09:23:09;25.90;99.90
13409;DHT22;6775;49.574;11.170;2022-07-22T09:25:38;26.10;99.90
13409;DHT22;6775;49.574;11.170;2022-07-22T09:28:12;26.20;99.90
13409;DHT22;6775;49.574;11.170;2022-07-22T09:30:47;26.40;99.60
13409;DHT22;6775;49.574;11.170;2022-07-22T09:33:16;26.50;99.50
13409;DHT22;6775;49.574;11.170;2022-07-22T09:35:47;26.50;99.00
13409;DHT22;6775;49.574;11.170;2022-07-22T09:38:18;26.60;99.00
13409;DHT22;6775;49.574;11.170;2022-07-22T09:40:48;26.70;98.60
13409;DHT22;6775;49.574;11.170;2022-07-22T09:43:18;26.80;98.30
13409;DHT22;6775;49.574;11.170;2022-07-22T09:45:48;26.90;98.10
13409;DHT22;6775;49.574;11.170;2022-07-22T09:48:18;26.90;97.60
13409;DHT22;6775;49.574;11.170;2022-07-22T09:50:48;26.90;96.90
13409;DHT22;6775;49.574;11.170;2022-07-22T09:53:17;26.90;97.20
13409;DHT22;6775;49.574;11.170;2022-07-22T09:55:46;27.00;97.40
13409;DHT22;6775;49.574;11.170;2022-07-22T09:58:14;27.20;96.70
13409;DHT22;6775;49.574;11.170;2022-07-22T10:00:43;27.20;96.20
13409;DHT22;6775;49.574;11.170;2022-07-22T10:03:13;27.20;96.30
13409;DHT22;6775;49.574;11.170;2022-07-22T10:05:46;27.30;96.20
13409;DHT22;6775;49.574;11.170;2022-07-22T10:08:14;27.40;95.70
13409;DHT22;6775;49.574;11.170;2022-07-22T10:10:42;27.40;95.40
13409;DHT22;6775;49.574;11.170;2022-07-22T10:13:10;27.40;95.60
13409;DHT22;6775;49.574;11.170;2022-07-22T10:15:38;27.50;95.20
13409;DHT22;6775;49.574;11.170;2022-07-22T10:18:09;27.60;94.80
13409;DHT22;6775;49.574;11.170;2022-07-22T10:20:41;27.60;94.80
13409;DHT22;6775;49.574;11.170;2022-07-22T10:23:12;27.70;94.60
13409;DHT22;6775;49.574;11.170;2022-07-22T10:25:51;27.90;94.40
13409;DHT22;6775;49.574;11.170;2022-07-22T10:28:22;27.80;94.00
13409;DHT22;6775;49.574;11.170;2022-07-22T10:30:51;27.80;93.60
13409;DHT22;6775;49.574;11.170;2022-07-22T10:33:20;27.90;93.50
13409;DHT22;6775;49.574;11.170;2022-07-22T10:35:57;27.90;93.70
13409;DHT22;6775;49.574;11.170;2022-07-22T10:38:27;28.00;93.10
13409;DHT22;6775;49.574;11.170;2022-07-22T10:40:58;28.10;93.00
13409;DHT22;6775;49.574;11.170;2022-07-22T10:43:27;28.20;92.80
13409;DHT22;6775;49.574;11.170;2022-07-22T10:45:57;28.30;92.60
13409;DHT22;6775;49.574;11.170;2022-07-22T10:48:44;28.50;92.20
13409;DHT22;6775;49.574;11.170;2022-07-22T10:51:15;28.60;91.60
13409;DHT22;6775;49.574;11.170;2022-07-22T10:53:47;28.60;91.50
13409;DHT22;6775;49.574;11.170;2022-07-22T10:56:25;28.70;91.10
13409;DHT22;6775;49.574;11.170;2022-07-22T10:58:56;28.80;90.60
13409;DHT22;6775;49.574;11.170;2022-07-22T11:01:29;28.80;90.70
13409;DHT22;6775;49.574;11.170;2022-07-22T11:04:08;28.80;90.10
13409;DHT22;6775;49.574;11.170;2022-07-22T11:06:44;28.90;90.20
13409;DHT22;6775;49.574;11.170;2022-07-22T11:09:15;29.00;89.50
13409;DHT22;6775;49.574;11.170;2022-07-22T11:11:46;29.10;88.80
13409;DHT22;6775;49.574;11.170;2022-07-22T11:14:17;29.10;88.00
13409;DHT22;6775;49.574;11.170;2022-07-22T11:16:47;29.10;88.10
13409;DHT22;6775;49.574;11.170;2022-07-22T11:19:20;29.30;87.20
13409;DHT22;6775;49.574;11.170;2022-07-22T11:21:50;29.40;86.80
13409;DHT22;6775;49.574;11.170;2022-07-22T11:24:21;29.50;86.40
13409;DHT22;6775;49.574;11.170;2022-07-22T11:26:51;29.60;85.60
13409;DHT22;6775;49.574;11.170;2022-07-22T11:29:25;29.70;84.70
13409;DHT22;6775;49.574;11.170;2022-07-22T11:31:54;29.70;84.20
13409;DHT22;6775;49.574;11.170;2022-07-22T11:34:23;29.80;83.60
13409;DHT22;6775;49.574;11.170;2022-07-22T11:36:52;29.80;82.90
13409;DHT22;6775;49.574;11.170;2022-07-22T11:39:23;29.80;83.80
13409;DHT22;6775;49.574;11.170;2022-07-22T11:41:53;29.90;83.20
13409;DHT22;6775;49.574;11.170;2022-07-22T11:44:23;30.00;81.50
13409;DHT22;6775;49.574;11.170;2022-07-22T11:46:52;30.10;81.70
13409;DHT22;6775;49.574;11.170;2022-07-22T11:49:21;30.10;81.30
13409;DHT22;6775;49.574;11.170;2022-07-22T11:51:50;30.20;81.30
13409;DHT22;6775;49.574;11.170;2022-07-22T11:54:19;30.20;80.60
13409;DHT22;6775;49.574;11.170;2022-07-22T11:56:48;30.30;79.90
13409;DHT22;6775;49.574;11.170;2022-07-22T11:59:23;30.40;80.00
13409;DHT22;6775;49.574;11.170;2022-07-22T12:01:51;30.50;79.60
13409;DHT22;6775;49.574;11.170;2022-07-22T12:04:20;30.60;79.00
13409;DHT22;6775;49.574;11.170;2022-07-22T12:06:50;30.60;77.00
13409;DHT22;6775;49.574;11.170;2022-07-22T12:09:21;30.60;78.10
13409;DHT22;6775;49.574;11.170;2022-07-22T12:11:52;30.60;77.70
13409;DHT22;6775;49.574;11.170;2022-07-22T12:14:22;30.60;76.70
13409;DHT22;6775;49.574;11.170;2022-07-22T12:16:56;30.60;76.20
13409;DHT22;6775;49.574;11.170;2022-07-22T12:19:25;30.50;76.50
13409;DHT22;6775;49.574;11.170;2022-07-22T12:21:57;30.40;74.70
13409;DHT22;6775;49.574;11.170;2022-07-22T12:24:27;30.30;75.60
13409;DHT22;6775;49.574;11.170;2022-07-22T12:26:57;30.10;76.00
13409;DHT22;6775;49.574;11.170;2022-07-22T12:29:27;30.10;75.80
13409;DHT22;6775;49.574;11.170;2022-07-22T12:31:57;30.10;75.90
13409;DHT22;6775;49.574;11.170;2022-07-22T12:34:33;30.10;76.40
13409;DHT22;6775;49.574;11.170;2022-07-22T12:37:15;30.20;75.30
13409;DHT22;6775;49.574;11.170;2022-07-22T12:39:54;30.20;74.30
13409;DHT22;6775;49.574;11.170;2022-07-22T12:42:24;30.20;74.60
13409;DHT22;6775;49.574;11.170;2022-07-22T12:45:00;30.20;74.80
13409;DHT22;6775;49.574;11.170;2022-07-22T12:47:42;30.20;74.60
13409;DHT22;6775;49.574;11.170;2022-07-22T12:50:16;30.40;75.00
13409;DHT22;6775;49.574;11.170;2022-07-22T12:52:44;30.50;74.60
13409;DHT22;6775;49.574;11.170;2022-07-22T12:55:34;30.60;73.70
13409;DHT22;6775;49.574;11.170;2022-07-22T12:58:05;30.70;74.00
13409;DHT22;6775;49.574;11.170;2022-07-22T13:00:35;30.70;73.30
13409;DHT22;6775;49.574;11.170;2022-07-22T13:03:03;30.80;72.30
13409;DHT22;6775;49.574;11.170;2022-07-22T13:05:32;30.80;72.60
13409;DHT22;6775;49.574;11.170;2022-07-22T13:08:01;30.80;73.10
13409;DHT22;6775;49.574;11.170;2022-07-22T13:10:35;30.90;71.70
13409;DHT22;6775;49.574;11.170;2022-07-22T13:13:07;30.90;71.90
13409;DHT22;6775;49.574;11.170;2022-07-22T13:15:36;30.90;71.80
13409;DHT22;6775;49.574;11.170;2022-07-22T13:18:04;31.00;71.90
13409;DHT22;6775;49.574;11.170;2022-07-22T13:20:33;31.00;70.90
13409;DHT22;6775;49.574;11.170;2022-07-22T13:23:01;30.90;70.40
13409;DHT22;6775;49.574;11.170;2022-07-22T13:25:29;30.90;71.00
13409;DHT22;6775;49.574;11.170;2022-07-22T13:27:57;30.90;71.60
13409;DHT22;6775;49.574;11.170;2022-07-22T13:30:27;30.90;71.30
13409;DHT22;6775;49.574;11.170;2022-07-22T13:32:55;31.00;71.10
13409;DHT22;6775;49.574;11.170;2022-07-22T13:35:23;31.00;70.90
13409;DHT22;6775;49.574;11.170;2022-07-22T13:37:51;31.00;71.10
13409;DHT22;6775;49.574;11.170;2022-07-22T13:40:19;31.10;70.70
13409;DHT22;6775;49.574;11.170;2022-07-22T13:42:47;31.10;70.60
13409;DHT22;6775;49.574;11.170;2022-07-22T13:45:15;31.10;70.20
13409;DHT22;6775;49.574;11.170;2022-07-22T13:47:44;31.10;70.10
13409;DHT22;6775;49.574;11.170;2022-07-22T13:50:12;31.10;69.50
13409;DHT22;6775;49.574;11.170;2022-07-22T13:52:40;31.20;69.40
13409;DHT22;6775;49.574;11.170;2022-07-22T13:55:08;31.20;69.00
13409;DHT22;6775;49.574;11.170;2022-07-22T13:57:36;31.10;69.20
13409;DHT22;6775;49.574;11.170;2022-07-22T14:00:05;31.00;69.30
13409;DHT22;6775;49.574;11.170;2022-07-22T14:02:39;31.10;69.60
13409;DHT22;6775;49.574;11.170;2022-07-22T14:05:09;31.00;69.00
13409;DHT22;6775;49.574;11.170;2022-07-22T14:07:37;31.00;68.90
13409;DHT22;6775;49.574;11.170;2022-07-22T14:10:08;31.00;68.70
13409;DHT22;6775;49.574;11.170;2022-07-22T14:12:36;31.00;68.80
13409;DHT22;6775;49.574;11.170;2022-07-22T14:15:05;30.90;68.50
13409;DHT22;6775;49.574;11.170;2022-07-22T14:17:34;30.90;68.00
13409;DHT22;6775;49.574;11.170;2022-07-22T14:20:02;30.90;68.40
13409;DHT22;6775;49.574;11.170;2022-07-22T14:22:34;30.90;68.60
13409;DHT22;6775;49.574;11.170;2022-07-22T14:25:03;30.80;68.50
13409;DHT22;6775;49.574;11.170;2022-07-22T14:27:31;30.90;68.50
13409;DHT22;6775;49.574;11.170;2022-07-22T14:29:59;30.90;67.90
13409;DHT22;6775;49.574;11.170;2022-07-22T14:32:27;30.90;67.50
13409;DHT22;6775;49.574;11.170;2022-07-22T14:34:55;30.90;67.50
13409;DHT22;6775;49.574;11.170;2022-07-22T14:37:23;30.90;67.30
13409;DHT22;6775;49.574;11.170;2022-07-22T14:39:54;30.80;67.50
13409;DHT22;6775;49.574;11.170;2022-07-22T14:42:22;30.80;68.10
13409;DHT22;6775;49.574;11.170;2022-07-22T14:44:50;30.80;67.90
13409;DHT22;6775;49.574;11.170;2022-07-22T14:47:18;30.80;68.10
13409;DHT22;6775;49.574;11.170;2022-07-22T14:49:46;30.80;67.80
13409;DHT22;6775;49.574;11.170;2022-07-22T14:52:14;30.80;67.40
13409;DHT22;6775;49.574;11.170;2022-07-22T14:54:42;30.70;67.80
13409;DHT22;6775;49.574;11.170;2022-07-22T14:57:11;30.80;67.80
13409;DHT22;6775;49.574;11.170;2022-07-22T14:59:39;30.90;68.20
13409;DHT22;6775;49.574;11.170;2022-07-22T15:02:07;30.90;65.80
13409;DHT22;6775;49.574;11.170;2022-07-22T15:04:35;30.90;65.90
13409;DHT22;6775;49.574;11.170;2022-07-22T15:07:03;30.90;65.80
13409;DHT22;6775;49.574;11.170;2022-07-22T15:09:31;30.80;66.00
13409;DHT22;6775;49.574;11.170;2022-07-22T15:11:59;30.80;65.50
13409;DHT22;6775;49.574;11.170;2022-07-22T15:14:29;30.80;66.10
13409;DHT22;6775;49.574;11.170;2022-07-22T15:16:57;30.70;66.10
13409;DHT22;6775;49.574;11.170;2022-07-22T15:19:25;30.70;66.30
13409;DHT22;6775;49.574;11.170;2022-07-22T15:21:53;30.80;66.50
13409;DHT22;6775;49.574;11.170;2022-07-22T15:24:21;30.80;66.70
13409;DHT22;6775;49.574;11.170;2022-07-22T15:26:50;30.80;66.50
13409;DHT22;6775;49.574;11.170;2022-07-22T15:29:18;30.80;66.50
13409;DHT22;6775;49.574;11.170;2022-07-22T15:31:47;30.80;66.50
13409;DHT22;6775;49.574;11.170;2022-07-22T15:34:15;30.80;66.80
13409;DHT22;6775;49.574;11.170;2022-07-22T15:36:43;30.70;66.80
13409;DHT22;6775;49.574;11.170;2022-07-22T15:39:11;30.70;66.80
13409;DHT22;6775;49.574;11.170;2022-07-22T15:41:40;30.70;67.70
13409;DHT22;6775;49.574;11.170;2022-07-22T15:44:08;30.60;68.70